createdAt,value
2018-03-25T00:01:50.364Z,67.30
2018-03-25T00:04:19.771Z,67.60
2018-03-25T00:07:03.495Z,67.20
2018-03-25T00:09:33.086Z,66.50
2018-03-25T00:14:32.841Z,66.70
2018-03-25T00:17:02.751Z,66.70
2018-03-25T00:19:32.287Z,66.00
2018-03-25T00:22:05.308Z,65.70
2018-03-25T00:24:34.952Z,65.30
2018-03-25T00:27:07.639Z,64.90
2018-03-25T00:29:36.963Z,65.00
2018-03-25T00:32:19.619Z,65.10
2018-03-25T00:34:50.001Z,65.20
2018-03-25T00:37:21.161Z,65.30
2018-03-25T00:42:21.230Z,65.10
2018-03-25T00:44:50.698Z,65.10
2018-03-25T00:47:20.109Z,65.30
2018-03-25T00:49:50.154Z,65.20
2018-03-25T00:52:22.202Z,65.60
2018-03-25T00:54:52.332Z,66.70
2018-03-25T00:57:23.216Z,66.40
2018-03-25T00:59:53.370Z,67.60
2018-03-25T01:04:56.397Z,68.40
2018-03-25T01:07:28.325Z,68.50
2018-03-25T01:09:57.911Z,68.60
2018-03-25T01:15:00.026Z,67.60
2018-03-25T01:17:34.066Z,67.50
2018-03-25T01:20:03.663Z,67.40
2018-03-25T01:25:05.755Z,67.60
2018-03-25T01:27:39.916Z,67.30
2018-03-25T01:30:10.490Z,69.60
2018-03-25T01:32:43.285Z,71.40
2018-03-25T01:35:13.203Z,71.20
2018-03-25T01:37:43.913Z,71.30
2018-03-25T01:40:15.234Z,70.70
2018-03-25T01:42:49.327Z,71.20
2018-03-25T01:45:20.638Z,70.80
2018-03-25T01:47:51.823Z,71.20
2018-03-25T01:50:22.495Z,70.80
2018-03-25T01:52:55.201Z,70.80
2018-03-25T01:55:25.550Z,69.50
2018-03-25T01:58:07.568Z,70.50
2018-03-25T02:00:37.736Z,69.70
2018-03-25T02:03:07.854Z,69.60
2018-03-25T02:05:37.879Z,69.70
2018-03-25T02:08:07.997Z,70.10
2018-03-25T02:10:37.869Z,69.40
2018-03-25T02:13:07.829Z,69.20
2018-03-25T02:15:38.499Z,69.80
2018-03-25T02:18:12.608Z,70.60
2018-03-25T02:20:43.419Z,71.60
2018-03-25T02:23:15.182Z,72.50
2018-03-25T02:25:45.065Z,73.00
2018-03-25T02:28:16.137Z,72.90
2018-03-25T02:30:46.415Z,72.30
2018-03-25T02:33:18.597Z,72.50
2018-03-25T02:35:49.345Z,71.50
2018-03-25T02:38:21.193Z,71.10
2018-03-25T02:40:51.906Z,70.60
2018-03-25T02:45:52.945Z,70.20
2018-03-25T02:48:26.467Z,69.80
2018-03-25T02:50:57.351Z,70.20
2018-03-25T02:53:27.671Z,70.30
2018-03-25T02:55:57.748Z,69.00
2018-03-25T02:58:29.800Z,69.60
2018-03-25T03:01:00.331Z,69.90
2018-03-25T03:03:33.842Z,69.90
2018-03-25T03:06:05.369Z,69.00
2018-03-25T03:08:35.929Z,68.90
2018-03-25T03:11:06.227Z,69.00
2018-03-25T03:13:38.127Z,70.20
2018-03-25T03:18:40.564Z,69.10
2018-03-25T03:21:11.298Z,69.50
2018-03-25T03:23:42.469Z,69.30
2018-03-25T03:26:14.137Z,69.10
2018-03-25T03:28:45.732Z,69.20
2018-03-25T03:31:15.887Z,69.60
2018-03-25T03:33:49.879Z,70.00
2018-03-25T03:36:20.011Z,70.40
2018-03-25T03:38:50.832Z,70.80
2018-03-25T03:41:20.890Z,70.90
2018-03-25T03:43:55.420Z,71.10
2018-03-25T03:46:26.369Z,71.00
2018-03-25T03:48:59.601Z,70.10
2018-03-25T03:51:30.190Z,69.70
2018-03-25T03:54:01.819Z,69.60
2018-03-25T03:56:31.976Z,69.60
2018-03-25T03:59:03.816Z,69.40
2018-03-25T04:01:36.050Z,69.20
2018-03-25T04:04:11.277Z,68.90
2018-03-25T04:06:42.258Z,68.60
2018-03-25T04:11:45.482Z,69.70
2018-03-25T04:14:17.476Z,70.90
2018-03-25T04:16:48.294Z,72.00
2018-03-25T04:19:19.451Z,72.90
2018-03-25T04:21:49.730Z,73.60
2018-03-25T04:24:23.259Z,74.10
2018-03-25T04:26:54.849Z,74.80
2018-03-25T04:29:25.567Z,74.70
2018-03-25T04:31:55.812Z,74.80
2018-03-25T04:34:26.050Z,74.90
2018-03-25T04:36:56.711Z,75.10
2018-03-25T04:47:02.032Z,75.30
2018-03-25T04:49:34.551Z,75.00
2018-03-25T04:52:05.703Z,75.50
2018-03-25T04:54:35.996Z,74.80
2018-03-25T04:57:06.079Z,75.00
2018-03-25T04:59:41.085Z,75.00
2018-03-25T05:02:11.488Z,75.10
2018-03-25T05:04:43.323Z,76.00
2018-03-25T05:07:13.376Z,75.20
2018-03-25T05:09:44.730Z,75.30
2018-03-25T05:12:15.746Z,75.60
2018-03-25T05:14:47.489Z,75.00
2018-03-25T05:17:24.868Z,75.00
2018-03-25T05:19:55.302Z,73.90
2018-03-25T05:22:25.773Z,75.70
2018-03-25T05:24:56.772Z,76.40
2018-03-25T05:27:27.576Z,75.00
2018-03-25T05:29:58.956Z,76.50
2018-03-25T05:32:30.038Z,76.30
2018-03-25T05:35:03.217Z,76.30
2018-03-25T05:37:34.627Z,76.10
2018-03-25T05:40:05.094Z,77.30
2018-03-25T05:42:35.869Z,75.20
2018-03-25T05:45:08.195Z,75.10
2018-03-25T05:47:40.383Z,74.80
2018-03-25T05:50:13.652Z,74.70
2018-03-25T05:52:44.958Z,74.30
2018-03-25T05:55:15.290Z,74.50
2018-03-25T05:57:45.957Z,74.00
2018-03-25T06:00:17.128Z,73.40
2018-03-25T06:02:48.532Z,73.30
2018-03-25T06:05:19.847Z,73.00
2018-03-25T06:07:50.351Z,73.20
2018-03-25T06:10:20.598Z,73.10
2018-03-25T06:12:50.529Z,72.40
2018-03-25T06:15:23.771Z,71.80
2018-03-25T06:17:55.094Z,71.20
2018-03-25T06:20:26.292Z,71.20
2018-03-25T06:22:57.226Z,70.90
2018-03-25T06:25:28.253Z,70.40
2018-03-25T06:28:00.036Z,69.60
2018-03-25T06:30:30.615Z,68.70
2018-03-25T06:33:02.029Z,67.80
2018-03-25T06:40:36.140Z,66.20
2018-03-25T06:43:06.569Z,66.20
2018-03-25T06:50:41.994Z,65.30
2018-03-25T06:53:14.708Z,65.60
2018-03-25T06:55:46.283Z,65.00
2018-03-25T06:58:16.123Z,64.50
2018-03-25T07:00:47.388Z,64.10
2018-03-25T07:03:17.605Z,63.90
2018-03-25T07:05:50.579Z,63.80
2018-03-25T07:08:20.522Z,63.50
2018-03-25T07:10:52.273Z,63.80
2018-03-25T07:13:22.703Z,63.20
2018-03-25T07:18:26.140Z,58.20
2018-03-25T07:23:27.899Z,48.70
2018-03-25T07:26:00.647Z,44.30
2018-03-25T07:28:30.622Z,42.50
2018-03-25T07:31:04.523Z,43.10
2018-03-25T07:33:34.650Z,42.50
2018-03-25T07:36:08.240Z,43.50
2018-03-25T07:38:37.832Z,41.80
2018-03-25T07:41:11.667Z,41.70
2018-03-25T07:43:42.030Z,41.20
2018-03-25T07:46:12.180Z,39.70
2018-03-25T07:48:42.718Z,40.80
2018-03-25T07:51:15.279Z,44.00
2018-03-25T07:53:45.500Z,42.70
2018-03-25T07:56:16.962Z,41.20
2018-03-25T07:58:46.774Z,40.90
2018-03-25T08:01:20.701Z,43.10
2018-03-25T08:03:50.766Z,39.70
2018-03-25T08:06:23.458Z,40.20
2018-03-25T08:08:52.864Z,36.00
2018-03-25T08:11:25.043Z,38.10
2018-03-25T08:13:55.144Z,37.60
2018-03-25T08:16:26.127Z,34.40
2018-03-25T08:18:56.260Z,35.70
2018-03-25T08:21:27.748Z,35.40
2018-03-25T08:23:57.936Z,32.70
2018-03-25T08:26:31.170Z,32.30
2018-03-25T08:29:00.920Z,29.00
2018-03-25T08:31:34.137Z,28.60
2018-03-25T08:34:04.287Z,27.80
2018-03-25T08:36:37.196Z,26.70
2018-03-25T08:39:07.423Z,26.60
2018-03-25T08:41:40.828Z,28.50
2018-03-25T08:44:10.406Z,28.40
2018-03-25T08:46:43.582Z,29.60
2018-03-25T08:49:12.989Z,29.20
2018-03-25T08:51:44.757Z,29.70
2018-03-25T08:54:14.581Z,30.00
2018-03-25T08:56:48.525Z,32.20
2018-03-25T08:59:18.418Z,31.90
2018-03-25T09:01:51.134Z,31.30
2018-03-25T09:04:20.493Z,32.30
2018-03-25T09:06:52.292Z,33.30
2018-03-25T09:09:21.879Z,33.40
2018-03-25T09:12:03.459Z,34.70
2018-03-25T09:14:34.458Z,36.70
2018-03-25T09:17:04.844Z,37.60
2018-03-25T09:19:34.153Z,37.60
2018-03-25T09:22:04.560Z,38.80
2018-03-25T09:24:34.478Z,39.60
2018-03-25T09:27:05.690Z,41.10
2018-03-25T09:29:36.747Z,43.90
2018-03-25T09:32:18.472Z,44.70
2018-03-25T09:34:50.561Z,45.30
2018-03-25T09:37:21.393Z,45.30
2018-03-25T09:39:51.503Z,46.30
2018-03-25T09:42:21.261Z,45.00
2018-03-25T09:44:51.916Z,45.90
2018-03-25T09:47:21.238Z,45.50
2018-03-25T09:49:50.802Z,43.90
2018-03-25T09:52:21.921Z,44.70
2018-03-25T09:54:51.978Z,45.80
2018-03-25T09:57:23.025Z,46.50
2018-03-25T09:59:52.232Z,47.60
2018-03-25T10:02:27.438Z,45.40
2018-03-25T10:04:56.954Z,45.10
2018-03-25T10:07:27.255Z,44.90
2018-03-25T10:09:56.961Z,44.70
2018-03-25T10:12:29.335Z,44.40
2018-03-25T10:14:59.025Z,43.40
2018-03-25T10:17:32.590Z,44.30
2018-03-25T10:22:36.210Z,42.30
2018-03-25T10:25:06.073Z,42.20
2018-03-25T10:27:37.586Z,41.00
2018-03-25T10:30:07.702Z,41.10
2018-03-25T10:32:42.001Z,40.70
2018-03-25T10:35:11.578Z,41.30
2018-03-25T10:37:45.275Z,40.50
2018-03-25T10:40:15.457Z,39.80
2018-03-25T10:42:47.927Z,39.30
2018-03-25T10:45:17.282Z,40.10
2018-03-25T10:47:50.196Z,38.50
2018-03-25T10:50:19.707Z,39.20
2018-03-25T10:52:53.256Z,39.20
2018-03-25T10:55:24.187Z,39.40
2018-03-25T10:57:58.237Z,39.20
2018-03-25T11:00:28.113Z,38.10
2018-03-25T11:02:59.849Z,38.50
2018-03-25T11:05:29.295Z,38.90
2018-03-25T11:08:11.785Z,39.00
2018-03-25T11:10:43.138Z,39.60
2018-03-25T11:13:12.721Z,39.80
2018-03-25T11:15:42.818Z,40.30
2018-03-25T11:18:12.105Z,41.10
2018-03-25T11:20:44.213Z,40.80
2018-03-25T11:23:13.950Z,41.40
2018-03-25T11:25:44.798Z,40.50
2018-03-25T11:28:15.244Z,39.60
2018-03-25T11:30:45.557Z,38.40
2018-03-25T11:33:16.812Z,39.30
2018-03-25T11:35:46.384Z,39.70
2018-03-25T11:38:19.882Z,39.20
2018-03-25T11:40:50.329Z,38.30
2018-03-25T11:43:23.159Z,38.40
2018-03-25T11:45:52.386Z,38.30
2018-03-25T11:48:23.865Z,38.30
2018-03-25T11:53:28.666Z,38.40
2018-03-25T11:55:59.147Z,38.40
2018-03-25T11:58:29.824Z,37.60
2018-03-25T12:01:00.416Z,37.60
2018-03-25T12:03:34.362Z,38.10
2018-03-25T12:06:06.018Z,37.80
2018-03-25T12:08:37.061Z,37.50
2018-03-25T12:11:07.298Z,38.00
2018-03-25T12:13:37.932Z,37.30
2018-03-25T12:16:08.323Z,37.30
2018-03-25T12:18:50.578Z,37.20
2018-03-25T12:21:20.270Z,35.30
2018-03-25T12:23:50.458Z,36.30
2018-03-25T12:28:51.365Z,37.20
2018-03-25T12:31:20.680Z,36.10
2018-03-25T12:33:49.929Z,35.90
2018-03-25T12:38:52.781Z,35.90
2018-03-25T12:41:22.957Z,36.80
2018-03-25T12:46:25.019Z,36.80
2018-03-25T12:48:58.810Z,36.70
2018-03-25T12:51:29.560Z,37.30
2018-03-25T12:54:02.860Z,36.90
2018-03-25T12:56:32.151Z,37.00
2018-03-25T12:59:04.854Z,37.00
2018-03-25T13:01:34.934Z,37.60
2018-03-25T13:04:08.025Z,38.10
2018-03-25T13:06:37.566Z,38.50
2018-03-25T13:09:11.605Z,39.50
2018-03-25T13:11:42.301Z,40.00
2018-03-25T13:14:12.991Z,39.70
2018-03-25T13:19:15.406Z,38.60
2018-03-25T13:24:18.494Z,39.40
2018-03-25T13:26:49.009Z,39.10
2018-03-25T13:29:20.296Z,38.80
2018-03-25T13:31:50.976Z,38.60
2018-03-25T13:34:23.447Z,38.50
2018-03-25T13:36:52.681Z,36.90
2018-03-25T13:39:24.203Z,37.50
2018-03-25T13:41:54.688Z,36.40
2018-03-25T13:44:28.492Z,36.60
2018-03-25T13:46:58.579Z,37.60
2018-03-25T13:49:30.600Z,37.40
2018-03-25T13:51:59.942Z,36.90
2018-03-25T13:54:32.327Z,37.50
2018-03-25T13:57:01.867Z,38.10
2018-03-25T13:59:35.745Z,37.40
2018-03-25T14:02:06.747Z,37.60
2018-03-25T14:04:38.425Z,37.70
2018-03-25T14:07:09.129Z,37.80
2018-03-25T14:09:40.992Z,37.60
2018-03-25T14:12:10.653Z,37.20
2018-03-25T14:14:43.917Z,38.00
2018-03-25T14:19:47.268Z,37.70
2018-03-25T14:22:16.907Z,38.20
2018-03-25T14:24:59.014Z,39.80
2018-03-25T14:27:29.652Z,39.20
2018-03-25T14:29:59.454Z,39.30
2018-03-25T14:32:29.155Z,39.30
2018-03-25T14:35:00.230Z,38.00
2018-03-25T14:37:30.284Z,37.30
2018-03-25T14:40:00.656Z,37.20
2018-03-25T14:42:30.627Z,37.20
2018-03-25T14:45:02.412Z,38.40
2018-03-25T14:47:32.086Z,37.80
2018-03-25T14:50:04.681Z,38.30
2018-03-25T14:52:34.282Z,37.50
2018-03-25T14:55:08.771Z,38.00
2018-03-25T14:57:40.681Z,38.20
2018-03-25T15:00:29.038Z,38.20
2018-03-25T15:03:00.508Z,37.20
2018-03-25T15:05:31.147Z,37.20
2018-03-25T15:08:00.546Z,37.40
2018-03-25T15:10:29.832Z,38.20
2018-03-25T15:12:59.796Z,38.90
2018-03-25T15:15:29.666Z,38.20
2018-03-25T15:17:59.259Z,37.70
2018-03-25T15:20:29.242Z,38.20
2018-03-25T15:22:59.584Z,38.70
2018-03-25T15:25:29.649Z,39.80
2018-03-25T15:30:29.646Z,39.70
2018-03-25T15:32:59.295Z,40.00
2018-03-25T15:35:30.736Z,39.80
2018-03-25T15:38:01.133Z,40.30
2018-03-25T15:40:35.182Z,40.80
2018-03-25T15:43:04.490Z,40.60
2018-03-25T15:45:37.781Z,40.70
2018-03-25T15:48:22.384Z,40.00
2018-03-25T15:50:52.446Z,40.90
2018-03-25T15:53:21.657Z,41.60
2018-03-25T15:55:50.903Z,40.70
2018-03-25T15:58:20.507Z,39.80
2018-03-25T16:00:49.888Z,39.80
2018-03-25T16:03:20.511Z,39.80
2018-03-25T16:05:50.792Z,40.50
2018-03-25T16:08:19.942Z,40.00
2018-03-25T16:10:53.470Z,39.90
2018-03-25T16:13:24.560Z,40.30
2018-03-25T16:15:55.225Z,40.90
2018-03-25T16:18:24.477Z,41.00
2018-03-25T16:20:59.555Z,40.90
2018-03-25T16:23:31.219Z,40.80
2018-03-25T16:26:03.906Z,41.30
2018-03-25T16:28:34.626Z,41.30
2018-03-25T16:33:34.342Z,41.70
2018-03-25T16:36:08.479Z,42.40
2018-03-25T16:41:10.820Z,42.50
2018-03-25T16:43:40.340Z,43.20
2018-03-25T16:48:40.777Z,43.20
2018-03-25T16:51:14.371Z,43.50
2018-03-25T16:53:44.871Z,43.50
2018-03-25T16:56:18.146Z,43.60
2018-03-25T16:58:47.475Z,44.30
2018-03-25T17:01:20.322Z,44.50
2018-03-25T17:03:50.948Z,44.70
2018-03-25T17:06:21.432Z,44.80
2018-03-25T17:08:51.389Z,45.00
2018-03-25T17:11:25.027Z,45.00
2018-03-25T17:13:56.008Z,45.40
2018-03-25T17:16:27.800Z,45.90
2018-03-25T17:18:57.114Z,46.20
2018-03-25T17:21:29.002Z,47.10
2018-03-25T17:23:59.630Z,46.50
2018-03-25T17:26:32.459Z,47.00
2018-03-25T17:29:01.660Z,47.20
2018-03-25T17:31:43.994Z,47.80
2018-03-25T17:34:14.789Z,47.60
2018-03-25T17:36:44.459Z,48.10
2018-03-25T17:39:14.436Z,48.10
2018-03-25T17:41:45.066Z,48.50
2018-03-25T17:44:15.586Z,48.90
2018-03-25T17:46:45.198Z,49.00
2018-03-25T17:49:15.174Z,50.10
2018-03-25T17:51:46.102Z,49.50
2018-03-25T17:54:16.081Z,49.80
2018-03-25T17:56:49.233Z,49.90
2018-03-25T17:59:19.231Z,50.40
2018-03-25T18:01:51.293Z,50.50
2018-03-25T18:04:21.822Z,50.60
2018-03-25T18:06:54.645Z,50.30
2018-03-25T18:09:24.576Z,49.80
2018-03-25T18:11:58.128Z,49.60
2018-03-25T18:46:16.281Z,48.30
2018-03-25T18:51:18.397Z,49.10
2018-03-25T18:53:48.011Z,49.70
2018-03-25T18:56:20.850Z,50.20
2018-03-25T18:58:51.663Z,50.50
2018-03-25T19:01:23.864Z,50.40
2018-03-25T19:03:54.508Z,50.70
2018-03-25T19:06:25.402Z,51.90
2018-03-25T19:08:55.591Z,52.00
2018-03-25T19:11:27.548Z,52.10
2018-03-25T19:13:57.518Z,52.30
2018-03-25T19:19:00.177Z,52.80
2018-03-25T19:21:32.840Z,52.90
2018-03-25T19:26:34.667Z,53.60
2018-03-25T19:29:04.403Z,53.50
2018-03-25T19:31:38.083Z,53.70
2018-03-25T19:34:07.975Z,54.00
2018-03-25T19:36:40.740Z,54.20
2018-03-25T19:39:09.948Z,53.80
2018-03-25T19:41:52.232Z,53.60
2018-03-25T19:44:21.376Z,53.70
2018-03-25T19:46:51.669Z,54.40
2018-03-25T19:49:20.957Z,53.90
2018-03-25T19:51:50.191Z,53.60
2018-03-25T19:54:20.970Z,53.80
2018-03-25T19:56:52.178Z,53.80
2018-03-25T19:59:22.447Z,53.80
2018-03-25T20:04:23.041Z,53.70
2018-03-25T20:06:58.934Z,54.20
2018-03-25T20:09:29.889Z,53.80
2018-03-25T20:12:02.637Z,54.10
2018-03-25T20:14:31.856Z,53.90
2018-03-25T20:17:13.999Z,54.00
2018-03-25T20:19:44.373Z,54.50
2018-03-25T20:24:44.356Z,54.40
2018-03-25T20:27:14.700Z,54.50
2018-03-25T20:29:44.402Z,54.50
2018-03-25T20:32:18.506Z,54.50
2018-03-25T20:34:49.099Z,54.60
2018-03-25T20:37:19.547Z,54.70
2018-03-25T20:39:49.806Z,55.00
2018-03-25T20:42:19.813Z,55.20
2018-03-25T20:44:49.729Z,55.20
2018-03-25T20:47:22.996Z,55.00
2018-03-25T20:49:52.492Z,55.30
2018-03-25T20:52:23.729Z,55.40
2018-03-25T20:54:52.850Z,55.50
2018-03-25T20:57:26.110Z,55.60
2018-03-25T20:59:55.363Z,55.50
2018-03-25T21:02:27.695Z,56.10
2018-03-25T21:05:00.884Z,55.50
2018-03-25T21:07:30.440Z,55.90
2018-03-25T21:09:59.709Z,56.10
2018-03-25T21:12:42.416Z,56.30
2018-03-25T21:15:12.396Z,56.30
2018-03-25T21:17:41.639Z,56.50
2018-03-25T21:20:11.793Z,56.50
2018-03-25T21:22:42.142Z,56.50
2018-03-25T21:25:11.791Z,56.50
2018-03-25T21:27:41.430Z,56.60
2018-03-25T21:30:11.332Z,56.70
2018-03-25T21:32:53.690Z,57.30
2018-03-25T21:35:24.500Z,56.80
2018-03-25T21:40:24.642Z,56.80
2018-03-25T21:42:55.789Z,56.70
2018-03-25T21:45:25.292Z,56.80
2018-03-25T21:47:54.646Z,57.20
2018-03-25T21:50:25.528Z,57.30
2018-03-25T21:52:58.107Z,57.40
2018-03-25T21:55:27.495Z,57.70
2018-03-25T21:58:01.262Z,57.90
2018-03-25T22:00:32.378Z,58.10
2018-03-25T22:03:06.551Z,58.90
2018-03-25T22:05:36.033Z,58.70
2018-03-25T22:08:09.889Z,59.10
2018-03-25T22:10:39.998Z,59.50
2018-03-25T22:13:13.242Z,60.00
2018-03-25T22:15:42.735Z,60.40
2018-03-25T22:18:28.919Z,60.50
2018-03-25T22:20:58.825Z,60.70
2018-03-25T22:23:28.264Z,61.00
2018-03-25T22:25:57.611Z,61.30
2018-03-25T22:28:27.730Z,61.70
2018-03-25T22:30:58.308Z,61.70
2018-03-25T22:33:27.698Z,61.70
2018-03-25T22:35:57.232Z,61.80
2018-03-25T22:38:27.436Z,62.40
2018-03-25T22:40:57.545Z,61.60
2018-03-25T22:43:28.280Z,61.40
2018-03-25T22:45:57.993Z,61.30
2018-03-25T22:48:30.315Z,61.20
2018-03-25T22:51:00.308Z,61.10
2018-03-25T22:53:32.705Z,61.20
2018-03-25T22:56:01.954Z,61.20
2018-03-25T23:01:04.629Z,61.30
2018-03-25T23:03:38.279Z,61.30
2018-03-25T23:06:08.008Z,61.30
2018-03-25T23:08:40.668Z,61.40
2018-03-25T23:11:10.045Z,61.40
2018-03-25T23:13:42.566Z,61.40
2018-03-25T23:16:11.923Z,61.40
2018-03-25T23:18:48.075Z,61.50
2018-03-25T23:23:52.520Z,61.60
2018-03-25T23:26:23.924Z,62.20
2018-03-25T23:28:53.446Z,61.70
2018-03-25T23:31:22.815Z,61.60
2018-03-25T23:33:55.841Z,61.60
2018-03-25T23:36:25.565Z,61.70
2018-03-25T23:38:57.377Z,61.70
2018-03-25T23:41:26.866Z,62.00
2018-03-25T23:44:09.284Z,62.20
2018-03-25T23:46:39.931Z,62.00
2018-03-25T23:49:10.042Z,62.30
2018-03-25T23:51:39.959Z,62.60
2018-03-25T23:54:09.820Z,62.70
2018-03-25T23:56:40.072Z,63.60
2018-03-25T23:59:13.482Z,63.80
